Data for 01/23/2005

Time Sea-Level Adjusted Pressure Absolute Pressure Temperature Relative Humidity Dew Point   
(mb) (inHg) (mb) (inHg) (C) (F) (%) (C) (F)
00:05 1021 30.15 851 25.13 4.2 39.6 57 -3.6 25.6
00:10 1021 30.15 851 25.13 4.5 40.1 54 -4 24.8
00:15 1021 30.15 851 25.13 4.9 40.8 53 -3.9 25
00:20 1021 30.15 851 25.13 5 41 52 -4.1 24.7
00:25 1021 30.15 850 25.1 5.2 41.4 51 -4.1 24.7
00:30 1021 30.15 850 25.1 5.1 41.1 52 -4 24.9
00:35 1021 30.15 850 25.1 5 40.9 52 -4 24.8
00:40 1021 30.15 850 25.1 5 41.1 52 -3.9 25
00:45 1021 30.15 850 25.1 4.8 40.7 54 -3.6 25.5
00:50 1021 30.15 850 25.1 4.4 39.9 55 -3.9 24.9
00:55 1021 30.15 850 25.1 4.5 40.1 54 -4.1 24.6
01:00 1021 30.15 850 25.1 4.6 40.3 54 -4 24.8
01:05 1021 30.15 850 25.1 4.6 40.3 54 -3.9 24.9
01:10 1021 30.15 850 25.1 4.7 40.4 53 -4.1 24.7
01:15 1021 30.15 850 25.1 4.5 40.2 53 -4.2 24.5
01:20 1021 30.15 850 25.1 4.5 40.1 53 -4.2 24.5
01:25 1021 30.15 850 25.1 4.4 39.9 55 -3.9 25
01:30 1021 30.15 850 25.1 4 39.2 56 -4.1 24.7
01:35 1021 30.15 850 25.1 4 39.2 54 -4.4 24.1
01:40 1021 30.15 850 25.1 4.1 39.4 57 -3.8 25.2
01:45 1021 30.15 850 25.1 3.7 38.7 56 -4.3 24.3
01:50 1021 30.15 850 25.1 3.9 39 56 -4.1 24.6
01:55 1021 30.15 850 25.1 3.7 38.7 58 -3.8 25.1
02:00 1021 30.15 851 25.13 3.4 38.1 58 -4.1 24.6
02:05 1021 30.15 851 25.13 3.5 38.2 58 -4.1 24.7
02:10 1021 30.15 851 25.13 3.5 38.4 57 -4.1 24.7
02:15 1021 30.15 851 25.13 3.8 38.8 56 -4.1 24.6
02:20 1021 30.15 851 25.13 3.5 38.4 58 -4 24.9
02:25 1021 30.15 851 25.13 3.6 38.5 59 -3.7 25.4
02:30 1021 30.15 851 25.13 3.3 38 58 -4.2 24.5
02:35 1021 30.15 851 25.13 3.5 38.2 59 -3.8 25.2
02:40 1021 30.15 851 25.13 3.6 38.5 57 -4.1 24.6
02:45 1021 30.15 851 25.13 3.4 38.1 58 -4 24.8
02:50 1022 30.18 851 25.13 3 37.4 60 -4 24.9
02:55 1022 30.18 851 25.13 2.8 37 60 -4.3 24.3
03:00 1022 30.18 851 25.13 3 37.4 59 -4.3 24.3
03:05 1022 30.18 851 25.13 3.4 38.2 56 -4.5 23.9
03:10 1022 30.18 851 25.13 3.7 38.6 59 -3.7 25.4
03:15 1022 30.18 851 25.13 3.4 38.2 57 -4.3 24.3
03:20 1022 30.18 851 25.13 3.7 38.7 58 -3.7 25.3
03:25 1022 30.18 851 25.13 3.1 37.7 62 -3.5 25.6
03:30 1022 30.18 851 25.13 2.5 36.5 64 -3.7 25.3
03:35 1022 30.18 851 25.13 2.4 36.4 64 -3.6 25.5
03:40 1022 30.18 851 25.13 2.6 36.7 63 -3.7 25.4
03:45 1022 30.18 851 25.13 2.6 36.6 63 -3.7 25.3
03:50 1022 30.18 851 25.13 2.8 37 63 -3.6 25.5
03:55 1021 30.15 851 25.13 2.8 37 63 -3.6 25.4
04:00 1021 30.15 851 25.13 2.9 37.2 61 -3.9 25
04:05 1021 30.15 851 25.13 3.2 37.7 60 -3.9 25.1
04:10 1021 30.15 851 25.13 2.7 36.8 63 -3.7 25.4
04:15 1021 30.15 851 25.13 2.5 36.4 62 -4.1 24.7
04:20 1021 30.15 851 25.13 2.8 37 61 -4.1 24.7
04:25 1021 30.15 851 25.13 3.6 38.4 56 -4.4 24.1
04:30 1021 30.15 851 25.13 3.8 38.9 55 -4.3 24.3
04:35 1021 30.15 850 25.1 3.9 39.1 57 -3.8 25.1
04:40 1021 30.15 850 25.1 3.7 38.7 55 -4.5 24
04:45 1021 30.15 850 25.1 3.9 39 59 -3.4 25.8
04:50 1021 30.15 851 25.13 2.3 36.2 65 -3.6 25.5
04:55 1021 30.15 851 25.13 2.5 36.6 59 -4.7 23.5
05:00 1021 30.15 851 25.13 3.5 38.4 56 -4.3 24.2
05:05 1021 30.15 850 25.1 3.9 38.9 55 -4.4 24.1
05:10 1021 30.15 850 25.1 3.7 38.6 58 -3.8 25.1
05:15 1021 30.15 851 25.13 2.7 36.9 62 -4 24.9
05:20 1021 30.15 851 25.13 2.8 37 60 -4.2 24.4
05:25 1021 30.15 851 25.13 3.1 37.6 59 -4.1 24.6
05:30 1021 30.15 851 25.13 3 37.3 59 -4.2 24.4
05:35 1021 30.15 851 25.13 3.1 37.6 58 -4.4 24.2
05:40 1021 30.15 851 25.13 3.6 38.6 53 -5 23.1
05:45 1021 30.15 851 25.13 4.3 39.7 55 -4 24.8
05:50 1021 30.15 851 25.13 3.8 38.8 57 -3.9 25
05:55 1021 30.15 851 25.13 3.6 38.4 57 -4.1 24.6
06:00 1021 30.15 851 25.13 3.6 38.4 57 -4.3 24.3
06:05 1021 30.15 851 25.13 3.5 38.3 58 -3.9 25
06:10 1021 30.15 851 25.13 3.3 38 58 -4.2 24.4
06:15 1021 30.15 851 25.13 3.2 37.7 60 -3.9 24.9
06:20 1021 30.15 851 25.13 2.5 36.5 61 -4.2 24.5
06:25 1021 30.15 851 25.13 2.7 36.9 59 -4.5 23.9
06:30 1021 30.15 851 25.13 3.6 38.5 55 -4.7 23.6
06:35 1021 30.15 851 25.13 3.4 38.2 60 -3.7 25.4
06:40 1021 30.15 851 25.13 2.7 36.9 61 -4.1 24.6
06:45 1021 30.15 851 25.13 2.8 37.1 59 -4.3 24.2
06:50 1021 30.15 850 25.1 3.1 37.6 59 -4.2 24.5
06:55 1021 30.15 850 25.1 3 37.3 61 -3.8 25.1
07:00 1021 30.15 851 25.13 2.8 37 59 -4.3 24.2
07:05 1021 30.15 851 25.13 3 37.4 60 -4 24.7
07:10 1021 30.15 851 25.13 3.2 37.8 56 -4.7 23.6
07:15 1021 30.15 851 25.13 3.7 38.7 55 -4.4 24.1
07:20 1021 30.15 851 25.13 3.4 38 59 -4 24.8
07:25 1021 30.15 851 25.13 2.8 37 60 -4.2 24.4
07:30 1021 30.15 851 25.13 3 37.4 58 -4.4 24.1
07:35 1021 30.15 851 25.13 3 37.4 59 -4.2 24.4
07:40 1022 30.18 851 25.13 3.1 37.6 57 -4.6 23.7
07:45 1022 30.18 851 25.13 3.5 38.3 56 -4.4 24.1
07:50 1022 30.18 851 25.13 3.4 38.2 56 -4.5 23.9
07:55 1022 30.18 851 25.13 3.4 38.1 57 -4.3 24.2
08:00 1022 30.18 851 25.13 3.4 38.1 57 -4.4 24.2
08:05 1022 30.18 851 25.13 3.5 38.3 57 -4.3 24.3
08:10 1022 30.18 851 25.13 3.3 38 57 -4.3 24.3
08:15 1022 30.18 851 25.13 3.4 38.1 58 -4.1 24.5
08:20 1022 30.18 851 25.13 3.3 37.9 59 -4 24.8
08:25 1022 30.18 851 25.13 3.4 38.1 58 -4.1 24.6
08:30 1022 30.18 851 25.13 3.8 38.9 55 -4.4 24.1
08:35 1021 30.15 851 25.13 4.1 39.4 54 -4.3 24.2
08:40 1021 30.15 851 25.13 4.3 39.7 53 -4.4 24
08:45 1021 30.15 851 25.13 4.7 40.5 51 -4.6 23.6
08:50 1021 30.15 851 25.13 4.9 40.8 52 -4.2 24.4
08:55 1021 30.15 851 25.13 4.7 40.5 52 -4.4 24.1
09:00 1021 30.15 851 25.13 4.9 40.8 50 -4.6 23.7
09:05 1021 30.15 851 25.13 5.2 41.4 49 -4.5 23.8
09:10 1021 30.15 851 25.13 5.2 41.4 51 -4 24.8
09:15 1021 30.15 851 25.13 5.2 41.4 50 -4.4 24.1
09:20 1021 30.15 851 25.13 5.8 42.4 47 -4.6 23.7
09:25 1021 30.15 851 25.13 6.4 43.6 45 -4.7 23.6
09:30 1021 30.15 851 25.13 6.8 44.3 43 -4.9 23.2
09:35 1021 30.15 851 25.13 7.4 45.3 42 -4.6 23.7
09:40 1021 30.15 851 25.13 7.6 45.6 42 -4.5 23.9
09:45 1021 30.15 851 25.13 7.9 46.2 42 -4.1 24.7
09:50 1021 30.15 851 25.13 8.2 46.8 41 -4.2 24.5
09:55 1021 30.15 851 25.13 8.5 47.3 41 -4.1 24.6
10:00 1021 30.15 851 25.13 8.7 47.7 39 -4.3 24.3
10:05 1022 30.18 851 25.13 9 48.2 39 -4.2 24.5
10:10 1022 30.18 851 25.13 9.4 48.8 37 -4.4 24.1
10:15 1022 30.18 851 25.13 9.5 49.1 37 -4.3 24.3
10:20 1022 30.18 851 25.13 9.4 48.9 37 -4.4 24
10:25 1022 30.18 851 25.13 9.2 48.6 36 -5 23
10:30 1022 30.18 851 25.13 9.4 49 35 -5.1 22.8
10:35 1022 30.18 851 25.13 9.4 49 36 -5.1 22.9
10:40 1022 30.18 851 25.13 9.8 49.7 35 -5 23.1
10:45 1022 30.18 851 25.13 10.4 50.8 35 -4.5 23.9
10:50 1022 30.18 851 25.13 10.5 51 36 -4 24.8
10:55 1022 30.18 851 25.13 10.6 51.1 36 -3.9 25
11:00 1022 30.18 851 25.13 10.7 51.3 35 -4.1 24.7
11:05 1022 30.18 852 25.16 10.8 51.5 38 -3 26.5
11:10 1022 30.18 852 25.16 10.5 50.9 39 -2.8 26.9
11:15 1022 30.18 852 25.16 10.6 51 37 -3.3 26
11:20 1022 30.18 852 25.16 10.6 51.1 38 -3 26.6
11:25 1023 30.21 852 25.16 10.6 51 39 -2.9 26.7
11:30 1023 30.21 852 25.16 10.9 51.6 38 -2.8 27
11:35 1022 30.18 852 25.16 10.9 51.6 41 -1.9 28.6
11:40 1022 30.18 852 25.16 10.8 51.4 41 -1.8 28.7
11:45 1022 30.18 852 25.16 11 51.8 44 -0.6 31
11:50 1023 30.21 852 25.16 10.1 50.1 44 -1.4 29.4
11:55 1022 30.18 852 25.16 10.3 50.5 42 -2 28.4
12:00 1022 30.18 852 25.16 10.2 50.4 41 -2.4 27.6
12:05 1022 30.18 852 25.16 10.3 50.5 39 -3.2 26.3
12:10 1022 30.18 852 25.16 10.4 50.7 38 -3.2 26.2
12:15 1022 30.18 852 25.16 10.8 51.5 38 -3 26.5
12:20 1022 30.18 851 25.13 11 51.8 37 -3.2 26.2
12:25 1022 30.18 851 25.13 11.1 52.1 38 -2.5 27.4
12:30 1022 30.18 851 25.13 10.2 50.3 41 -2.6 27.4
12:35 1022 30.18 851 25.13 9.8 49.6 42 -2.5 27.4
12:40 1022 30.18 851 25.13 10.8 51.5 39 -2.6 27.3
12:45 1022 30.18 851 25.13 10.5 50.9 39 -2.7 27.2
12:50 1022 30.18 851 25.13 10.9 51.7 37 -3.3 26.1
12:55 1022 30.18 851 25.13 11.6 53 35 -3.3 26
13:00 1022 30.18 851 25.13 12 53.6 35 -3.1 26.4
13:05 1022 30.18 851 25.13 12.2 53.9 34 -3 26.5
13:10 1021 30.15 851 25.13 12.5 54.4 33 -3.1 26.4
13:15 1021 30.15 851 25.13 12.8 55.1 33 -2.9 26.8
13:20 1021 30.15 851 25.13 12.5 54.4 34 -3 26.6
13:25 1021 30.15 850 25.1 12.7 54.9 33 -3 26.6
13:30 1021 30.15 850 25.1 12.9 55.1 34 -2.6 27.4
13:35 1021 30.15 850 25.1 12.8 55 34 -2.7 27.1
13:40 1021 30.15 850 25.1 13.2 55.8 34 -2.3 27.8
13:45 1021 30.15 850 25.1 13.5 56.2 34 -2.2 28
13:50 1021 30.15 850 25.1 13 55.4 34 -2.4 27.6
13:55 1021 30.15 850 25.1 13.1 55.6 33 -2.6 27.4
14:00 1021 30.15 850 25.1 13.1 55.5 33 -2.8 27
14:05 1021 30.15 850 25.1 13.6 56.4 31 -3.4 26
14:10 1021 30.15 850 25.1 13.5 56.2 31 -3.3 26
14:15 1021 30.15 850 25.1 14 57.2 29 -3.7 25.3
14:20 1021 30.15 850 25.1 14.3 57.8 28 -3.9 25
14:25 1020 30.12 850 25.1 14.6 58.2 27 -4 24.7
14:30 1020 30.12 850 25.1 15.1 59.3 26 -4.2 24.5
14:35 1020 30.12 850 25.1 15.2 59.3 28 -3.3 26
14:40 1020 30.12 850 25.1 14.6 58.3 29 -3.3 26.1
14:45 1020 30.12 850 25.1 14.5 58.1 28 -3.5 25.7
14:50 1020 30.12 850 25.1 14.4 58 29 -3.4 25.9
14:55 1020 30.12 850 25.1 13.8 56.8 31 -2.8 26.9
15:00 1020 30.12 850 25.1 13.8 56.8 29 -4 24.8
15:05 1020 30.12 850 25.1 14.2 57.6 27 -4.4 24.1
15:10 1020 30.12 850 25.1 13.9 57.1 28 -4 24.8
15:15 1020 30.12 850 25.1 14.3 57.7 27 -4.5 23.8
15:20 1020 30.12 850 25.1 15 59 25 -4.9 23.1
15:25 1020 30.12 850 25.1 14.4 57.9 26 -4.7 23.5
15:30 1020 30.12 850 25.1 14.9 58.9 25 -4.8 23.4
15:35 1020 30.12 850 25.1 15.6 60 25 -4.4 24.1
15:40 1020 30.12 850 25.1 15.4 59.8 25 -4.2 24.5
15:45 1021 30.15 850 25.1 15.4 59.7 26 -3.8 25.1
15:50 1021 30.15 850 25.1 15.5 59.9 26 -3.7 25.3
15:55 1021 30.15 850 25.1 15.4 59.6 26 -3.8 25.2
16:00 1021 30.15 850 25.1 15.4 59.7 26 -3.7 25.3
16:05 1021 30.15 850 25.1 15.5 59.9 26 -3.7 25.3
16:10 1021 30.15 850 25.1 15.4 59.7 26 -3.7 25.4
16:15 1021 30.15 850 25.1 15.3 59.6 27 -3.5 25.7
16:20 1020 30.12 850 25.1 14.5 58.2 29 -3.1 26.5
16:25 1020 30.12 850 25.1 13.9 57.1 30 -3.1 26.4
16:30 1020 30.12 850 25.1 14.3 57.7 28 -4 24.7
16:35 1020 30.12 850 25.1 14 57.2 29 -3.7 25.3
16:40 1021 30.15 850 25.1 13.7 56.7 30 -3.4 25.8
16:45 1020 30.12 850 25.1 13.9 56.9 30 -3.3 26.1
16:50 1020 30.12 850 25.1 14 57.2 31 -3 26.7
16:55 1021 30.15 850 25.1 13.7 56.7 31 -3.2 26.3
17:00 1021 30.15 850 25.1 13.5 56.2 30 -3.7 25.4
17:05 1021 30.15 850 25.1 13.2 55.7 31 -3.5 25.8
17:10 1021 30.15 850 25.1 13.1 55.5 31 -3.5 25.7
17:15 1021 30.15 850 25.1 12.4 54.2 33 -3.6 25.6
17:20 1021 30.15 850 25.1 11.8 53.2 36 -2.8 27
17:25 1021 30.15 850 25.1 11.2 52.1 40 -2 28.5
17:30 1021 30.15 850 25.1 10.7 51.3 41 -1.8 28.7
17:35 1021 30.15 850 25.1 10.6 51.1 39 -2.6 27.3
17:40 1021 30.15 850 25.1 10.2 50.4 40 -2.9 26.9
17:45 1021 30.15 850 25.1 10.2 50.3 42 -2.2 28
17:50 1021 30.15 850 25.1 10.1 50.1 35 -4.7 23.6
17:55 1021 30.15 850 25.1 10.2 50.4 41 -2.3 27.8
18:00 1021 30.15 850 25.1 9.5 49.1 43 -2.3 27.9
18:05 1021 30.15 850 25.1 8.4 47.2 46 -2.3 27.8
18:10 1021 30.15 850 25.1 8.4 47 44 -3.3 26
18:15 1021 30.15 850 25.1 8.7 47.6 43 -3 26.5
18:20 1021 30.15 850 25.1 8.7 47.6 43 -3.3 26.1
18:25 1021 30.15 850 25.1 8.6 47.5 43 -3.2 26.3
18:30 1021 30.15 850 25.1 8.5 47.3 42 -3.6 25.6
18:35 1021 30.15 850 25.1 8.4 47.2 43 -3.4 25.8
18:40 1021 30.15 850 25.1 8.3 46.9 45 -3.1 26.5
18:45 1021 30.15 850 25.1 8.4 47 43 -3.4 26
18:50 1021 30.15 850 25.1 8.6 47.5 43 -3.3 26
18:55 1021 30.15 850 25.1 8.7 47.6 43 -3.2 26.2
19:00 1021 30.15 850 25.1 8.4 47.2 44 -3 26.6
19:05 1021 30.15 850 25.1 8 46.3 45 -3.1 26.5
19:10 1021 30.15 850 25.1 7.6 45.8 47 -2.8 26.9
19:15 1021 30.15 850 25.1 7.4 45.3 48 -2.9 26.8
19:20 1021 30.15 850 25.1 7.5 45.5 47 -3.2 26.3
19:25 1021 30.15 850 25.1 7.8 46 46 -3.1 26.4
19:30 1021 30.15 850 25.1 7.8 46 46 -3.1 26.4
19:35 1021 30.15 850 25.1 7.7 45.9 47 -2.9 26.8
19:40 1021 30.15 850 25.1 7.6 45.6 48 -2.9 26.8
19:45 1021 30.15 850 25.1 7.5 45.5 47 -3.1 26.4
19:50 1021 30.15 850 25.1 7.7 45.9 46 -3.1 26.5
19:55 1021 30.15 850 25.1 7.5 45.6 47 -3 26.7
20:00 1021 30.15 850 25.1 7.6 45.7 47 -3 26.6
20:05 1021 30.15 850 25.1 7.7 45.8 46 -3.2 26.3
20:10 1021 30.15 850 25.1 7.8 46 47 -2.9 26.8
20:15 1021 30.15 850 25.1 7.7 45.8 46 -3.1 26.5
20:20 1021 30.15 850 25.1 7.8 46 46 -3 26.5
20:25 1021 30.15 850 25.1 7.8 46 45 -3.4 25.9
20:30 1021 30.15 850 25.1 8.2 46.8 43 -3.5 25.8
20:35 1021 30.15 850 25.1 8.2 46.8 45 -3.1 26.4
20:40 1021 30.15 850 25.1 7.9 46.1 46 -2.9 26.7
20:45 1021 30.15 850 25.1 7.7 45.8 46 -3.2 26.3
20:50 1021 30.15 850 25.1 7.5 45.6 47 -3 26.7
20:55 1021 30.15 850 25.1 7.5 45.5 47 -3.1 26.4
21:00 1021 30.15 850 25.1 7.4 45.2 49 -2.7 27.2
21:05 1021 30.15 850 25.1 7.2 45 48 -3.2 26.3
21:10 1021 30.15 850 25.1 7.2 44.9 48 -3 26.5
21:15 1021 30.15 850 25.1 7.2 45 47 -3.2 26.2
21:20 1021 30.15 850 25.1 7.6 45.6 47 -3.1 26.4
21:25 1021 30.15 850 25.1 7.5 45.5 47 -3 26.5
21:30 1021 30.15 850 25.1 7.3 45.1 50 -2.5 27.5
21:35 1021 30.15 850 25.1 6.6 44 50 -2.9 26.8
21:40 1021 30.15 850 25.1 6.6 43.8 49 -3.3 26.1
21:45 1021 30.15 850 25.1 7 44.5 50 -2.7 27.1
21:50 1021 30.15 850 25.1 6.1 43 53 -2.8 27
21:55 1021 30.15 850 25.1 5.7 42.2 53 -3.1 26.5
22:00 1021 30.15 850 25.1 6 42.8 53 -2.9 26.7
22:05 1021 30.15 850 25.1 5.8 42.4 53 -3 26.5
22:10 1021 30.15 850 25.1 5.7 42.2 54 -3 26.5
22:15 1021 30.15 850 25.1 5.8 42.5 53 -3.1 26.4
22:20 1021 30.15 850 25.1 5.7 42.2 53 -3 26.5
22:25 1021 30.15 850 25.1 5.4 41.8 55 -2.9 26.8
22:30 1021 30.15 850 25.1 5.4 41.6 55 -3 26.6
22:35 1021 30.15 850 25.1 5.2 41.4 56 -2.8 26.9
22:40 1021 30.15 850 25.1 4.8 40.6 56 -3.2 26.2
22:45 1021 30.15 850 25.1 5.1 41.2 56 -2.9 26.8
22:50 1021 30.15 850 25.1 5.2 41.4 54 -3.5 25.8
22:55 1021 30.15 850 25.1 5.6 42 53 -3.3 26
23:00 1021 30.15 850 25.1 5.7 42.2 53 -3.2 26.2
23:05 1021 30.15 850 25.1 5.5 42 53 -3.2 26.2
23:10 1021 30.15 850 25.1 5.3 41.5 54 -3.2 26.3
23:15 1021 30.15 850 25.1 5.1 41.1 55 -3.2 26.3
23:20 1021 30.15 850 25.1 4.8 40.6 56 -3.2 26.2
23:25 1021 30.15 850 25.1 4.6 40.3 56 -3.3 26
23:30 1021 30.15 850 25.1 5 41 54 -3.5 25.7
23:35 1021 30.15 850 25.1 5.3 41.6 53 -3.4 26
23:40 1021 30.15 850 25.1 5 41.1 55 -3.3 26
23:45 1021 30.15 850 25.1 4.5 40.1 57 -3.3 26.1
23:50 1021 30.15 850 25.1 4 39.2 59 -3.3 26
23:55 1021 30.15 850 25.1 3.7 38.7 60 -3.4 25.9
24:00 1021 30.15 850 25.1 3.4 38.1 61 -3.4 25.9